createdAt,value
2023-03-06T00:00:23.399Z,173.67
2023-03-06T00:01:01.271Z,166.00
2023-03-06T00:01:33.101Z,158.67
2023-03-06T00:02:04.908Z,160.67
2023-03-06T00:02:36.658Z,168.00
2023-03-06T00:03:08.607Z,176.00
2023-03-06T00:03:40.368Z,179.00
2023-03-06T00:04:13.077Z,180.33
2023-03-06T00:04:44.790Z,186.67
2023-03-06T00:05:17.249Z,198.00
2023-03-06T00:05:49.316Z,201.00
2023-03-06T00:06:21.654Z,204.33
2023-03-06T00:06:54.261Z,206.33
2023-03-06T00:07:25.996Z,208.33
2023-03-06T00:07:57.831Z,209.67
2023-03-06T00:08:30.186Z,212.67
2023-03-06T00:09:01.970Z,212.67
2023-03-06T00:09:33.702Z,208.33
2023-03-06T00:10:05.763Z,206.67
2023-03-06T00:10:38.589Z,206.00
2023-03-06T00:11:14.833Z,203.67
2023-03-06T00:11:46.556Z,204.00
2023-03-06T00:12:18.330Z,205.00
2023-03-06T00:12:58.365Z,205.00
2023-03-06T00:13:31.264Z,204.33
2023-03-06T00:14:03.135Z,203.67
2023-03-06T00:14:34.878Z,202.67
2023-03-06T00:15:07.468Z,202.00
2023-03-06T00:15:39.493Z,202.00
2023-03-06T00:16:11.792Z,200.67
2023-03-06T00:16:43.564Z,198.67
2023-03-06T00:17:15.293Z,198.00
2023-03-06T00:17:47.457Z,198.33
2023-03-06T00:18:19.487Z,199.00
2023-03-06T00:18:52.205Z,196.67
2023-03-06T00:19:24.530Z,187.00
2023-03-06T00:19:56.364Z,176.33
2023-03-06T00:20:28.162Z,179.33
2023-03-06T00:21:00.293Z,188.33
2023-03-06T00:21:32.079Z,209.33
2023-03-06T00:22:03.942Z,212.33
2023-03-06T00:22:35.672Z,210.33
2023-03-06T00:23:08.404Z,209.67
2023-03-06T00:23:41.428Z,210.00
2023-03-06T00:24:13.379Z,210.00
2023-03-06T00:24:45.180Z,212.00
2023-03-06T00:25:20.322Z,209.67
2023-03-06T00:25:52.141Z,208.67
2023-03-06T00:26:23.954Z,207.00
2023-03-06T00:26:55.754Z,202.67
2023-03-06T00:27:27.595Z,195.33
2023-03-06T00:27:59.302Z,190.00
2023-03-06T00:28:31.640Z,187.67
2023-03-06T00:29:03.732Z,182.00
2023-03-06T00:29:35.664Z,176.00
2023-03-06T00:30:15.568Z,176.00
2023-03-06T00:30:47.586Z,179.00
2023-03-06T00:31:19.404Z,181.00
2023-03-06T00:31:51.220Z,182.00
2023-03-06T00:32:24.038Z,183.00
2023-03-06T00:32:56.572Z,181.67
2023-03-06T00:33:28.345Z,172.33
2023-03-06T00:34:00.346Z,171.00
2023-03-06T00:34:32.193Z,175.00
2023-03-06T00:35:04.276Z,177.33
2023-03-06T00:35:39.168Z,180.33
2023-03-06T00:36:11.046Z,184.00
2023-03-06T00:36:42.903Z,187.67
2023-03-06T00:37:14.662Z,190.00
2023-03-06T00:37:46.448Z,189.67
2023-03-06T00:38:18.198Z,187.33
2023-03-06T00:38:49.944Z,186.00
2023-03-06T00:39:22.601Z,182.00
2023-03-06T00:39:54.379Z,178.00
2023-03-06T00:40:26.822Z,176.33
2023-03-06T00:40:58.647Z,175.67
2023-03-06T00:41:30.442Z,175.33
2023-03-06T00:42:02.204Z,175.33
2023-03-06T00:42:34.005Z,176.00
2023-03-06T00:43:05.931Z,175.33
2023-03-06T00:43:38.077Z,170.00
2023-03-06T00:44:09.836Z,168.67
2023-03-06T00:44:41.757Z,169.00
2023-03-06T00:45:14.656Z,167.67
2023-03-06T00:45:46.443Z,165.33
2023-03-06T00:46:18.363Z,157.67
2023-03-06T00:46:50.174Z,149.67
2023-03-06T00:47:21.962Z,139.33
2023-03-06T00:47:53.763Z,135.67
2023-03-06T00:48:25.515Z,137.00
2023-03-06T00:48:57.268Z,141.00
2023-03-06T00:49:29.039Z,133.33
2023-03-06T00:50:01.073Z,126.67
2023-03-06T00:50:32.899Z,120.67
2023-03-06T00:51:04.925Z,122.33
2023-03-06T00:51:36.640Z,122.33
2023-03-06T00:52:08.416Z,123.67
2023-03-06T00:52:42.123Z,126.00
2023-03-06T00:53:13.895Z,123.33
2023-03-06T00:53:45.634Z,119.33
2023-03-06T00:54:17.416Z,112.00
2023-03-06T00:54:49.365Z,111.33
2023-03-06T00:55:21.289Z,104.33
2023-03-06T00:55:53.073Z,101.33
2023-03-06T00:56:25.315Z,102.00
2023-03-06T00:56:57.026Z,100.00
2023-03-06T00:57:28.851Z,111.33
2023-03-06T00:58:00.647Z,141.00
2023-03-06T00:58:32.409Z,173.67
2023-03-06T00:59:04.145Z,167.67
2023-03-06T00:59:36.462Z,156.33
2023-03-06T01:00:09.627Z,160.67
2023-03-06T01:00:41.405Z,176.33
2023-03-06T01:01:14.074Z,175.67
2023-03-06T01:01:45.863Z,165.33
2023-03-06T01:02:17.705Z,161.00
2023-03-06T01:02:49.619Z,161.67
2023-03-06T01:03:21.420Z,172.00
2023-03-06T01:03:53.178Z,180.00
2023-03-06T01:04:25.328Z,172.00
2023-03-06T01:04:57.597Z,164.33
2023-03-06T01:05:35.819Z,150.33
2023-03-06T01:06:07.789Z,134.67
2023-03-06T01:06:39.555Z,120.33
2023-03-06T01:07:11.386Z,125.33
2023-03-06T01:07:43.156Z,131.00
2023-03-06T01:08:14.911Z,131.67
2023-03-06T01:08:46.653Z,129.00
2023-03-06T01:09:18.448Z,129.00
2023-03-06T01:09:50.475Z,131.67
2023-03-06T01:10:22.372Z,132.67
2023-03-06T01:10:54.206Z,132.00
2023-03-06T01:11:26.215Z,128.00
2023-03-06T01:11:57.988Z,120.33
2023-03-06T01:12:29.896Z,121.00
2023-03-06T01:13:01.626Z,123.00
2023-03-06T01:13:33.375Z,123.00
2023-03-06T01:14:05.585Z,123.33
2023-03-06T01:14:37.296Z,123.33
2023-03-06T01:15:10.882Z,124.67
2023-03-06T01:15:42.790Z,126.00
2023-03-06T01:16:19.118Z,127.33
2023-03-06T01:16:50.942Z,128.33
2023-03-06T01:17:22.675Z,129.00
2023-03-06T01:17:55.267Z,128.00
2023-03-06T01:18:27.037Z,126.67
2023-03-06T01:18:59.263Z,125.00
2023-03-06T01:19:31.243Z,119.00
2023-03-06T01:20:03.161Z,111.33
2023-03-06T01:20:34.975Z,109.33
2023-03-06T01:21:07.342Z,111.00
2023-03-06T01:21:39.200Z,112.33
2023-03-06T01:22:10.966Z,113.33
2023-03-06T01:22:43.168Z,112.67
2023-03-06T01:23:14.994Z,111.00
2023-03-06T01:23:47.506Z,110.00
2023-03-06T01:24:19.255Z,110.00
2023-03-06T01:24:50.994Z,111.00
2023-03-06T01:25:24.371Z,111.00
2023-03-06T01:25:56.297Z,111.00
2023-03-06T01:26:28.096Z,112.00
2023-03-06T01:26:59.910Z,112.00
2023-03-06T01:27:31.657Z,112.00
2023-03-06T01:28:03.599Z,112.00
2023-03-06T01:28:37.543Z,112.00
2023-03-06T01:29:09.374Z,112.00
2023-03-06T01:29:41.124Z,112.00
2023-03-06T01:30:13.197Z,112.67
2023-03-06T01:30:44.936Z,113.00
2023-03-06T01:31:16.850Z,113.00
2023-03-06T01:31:48.802Z,112.00
2023-03-06T01:32:21.609Z,112.00
2023-03-06T01:32:53.452Z,113.00
2023-03-06T01:33:25.198Z,114.33
2023-03-06T01:33:56.971Z,115.33
2023-03-06T01:34:28.800Z,118.33
2023-03-06T01:35:00.573Z,124.00
2023-03-06T01:35:32.352Z,128.67
2023-03-06T01:36:06.612Z,129.33
2023-03-06T01:36:38.427Z,129.00
2023-03-06T01:37:10.297Z,130.00
2023-03-06T01:37:42.507Z,132.00
2023-03-06T01:38:14.627Z,131.33
2023-03-06T01:38:46.470Z,130.33
2023-03-06T01:39:18.279Z,130.00
2023-03-06T01:39:50.354Z,131.33
2023-03-06T01:40:22.274Z,134.33
2023-03-06T01:40:54.074Z,136.00
2023-03-06T01:41:25.920Z,135.00
2023-03-06T01:41:57.811Z,134.33
2023-03-06T01:42:31.941Z,133.67
2023-03-06T01:43:28.564Z,130.33
2023-03-06T01:44:00.388Z,121.33
2023-03-06T01:44:32.594Z,115.00
2023-03-06T01:45:27.219Z,110.33
2023-03-06T01:46:25.717Z,107.00
2023-03-06T01:46:57.542Z,101.33
2023-03-06T01:47:29.400Z,101.67
2023-03-06T01:48:01.176Z,101.33
2023-03-06T01:48:32.988Z,101.00
2023-03-06T01:49:16.645Z,101.67
2023-03-06T01:49:48.859Z,102.33
2023-03-06T01:50:20.838Z,103.00
2023-03-06T01:50:54.284Z,102.33
2023-03-06T01:51:35.725Z,101.00
2023-03-06T01:52:12.082Z,99.33
2023-03-06T01:52:56.261Z,98.67
2023-03-06T01:53:28.559Z,98.67
2023-03-06T01:54:05.349Z,98.33
2023-03-06T01:54:42.344Z,98.00
2023-03-06T01:55:28.126Z,98.00
2023-03-06T01:55:59.899Z,98.00
2023-03-06T01:56:32.176Z,96.67
2023-03-06T01:57:13.589Z,96.00
2023-03-06T01:57:51.287Z,96.33
2023-03-06T01:58:23.162Z,97.00
2023-03-06T01:58:55.122Z,97.67
2023-03-06T01:59:29.411Z,98.00
2023-03-06T02:00:12.604Z,99.00
2023-03-06T02:00:44.591Z,100.00
2023-03-06T02:01:18.963Z,101.00
2023-03-06T02:01:51.544Z,103.33
2023-03-06T02:02:23.442Z,105.00
2023-03-06T02:03:04.527Z,106.00
2023-03-06T02:03:36.603Z,106.00
2023-03-06T02:04:09.740Z,106.00
2023-03-06T02:04:42.643Z,106.00
2023-03-06T02:05:14.588Z,104.33
2023-03-06T02:05:46.665Z,103.33
2023-03-06T02:06:21.791Z,102.00
2023-03-06T02:06:54.174Z,101.33
2023-03-06T02:07:26.320Z,101.00
2023-03-06T02:07:58.421Z,99.67
2023-03-06T02:08:31.609Z,99.00
2023-03-06T02:09:05.763Z,97.67
2023-03-06T02:09:38.916Z,96.33
2023-03-06T02:10:12.267Z,94.67
2023-03-06T02:10:56.797Z,94.00
2023-03-06T02:11:28.597Z,93.33
2023-03-06T02:12:07.880Z,93.00
2023-03-06T02:12:43.805Z,92.33
2023-03-06T02:13:15.597Z,92.00
2023-03-06T02:13:49.214Z,91.00
2023-03-06T02:14:21.378Z,90.67
2023-03-06T02:14:53.863Z,89.33
2023-03-06T02:15:29.191Z,89.00
2023-03-06T02:16:02.257Z,89.00
2023-03-06T02:16:34.292Z,90.00
2023-03-06T02:17:09.038Z,90.33
2023-03-06T02:17:43.867Z,91.00
2023-03-06T02:18:15.779Z,92.00
2023-03-06T02:18:49.490Z,93.33
2023-03-06T02:19:58.144Z,94.00
2023-03-06T02:20:39.656Z,95.00
2023-03-06T02:21:21.735Z,95.67
2023-03-06T02:21:53.489Z,98.00
2023-03-06T02:22:36.323Z,100.00
2023-03-06T02:23:25.272Z,107.00
2023-03-06T02:24:18.766Z,111.33
2023-03-06T02:25:03.438Z,123.33
2023-03-06T02:25:38.348Z,133.00
2023-03-06T02:26:12.178Z,135.33
2023-03-06T02:26:45.362Z,136.67
2023-03-06T02:27:19.032Z,136.67
2023-03-06T02:27:50.839Z,133.33
2023-03-06T02:28:24.825Z,131.67
2023-03-06T02:28:58.549Z,128.67
2023-03-06T02:29:30.610Z,127.67
2023-03-06T02:30:07.820Z,126.67
2023-03-06T02:30:41.449Z,126.67
2023-03-06T02:31:25.139Z,126.00
2023-03-06T02:31:57.586Z,125.67
2023-03-06T02:32:29.343Z,125.00
2023-03-06T02:33:01.604Z,125.00
2023-03-06T02:33:33.533Z,125.00
2023-03-06T02:34:27.138Z,124.00
2023-03-06T02:34:59.090Z,124.00
2023-03-06T02:35:34.759Z,124.00
2023-03-06T02:36:12.920Z,123.33
2023-03-06T02:36:51.880Z,122.67
2023-03-06T02:37:26.179Z,119.67
2023-03-06T02:38:02.746Z,114.33
2023-03-06T02:38:44.644Z,112.33
2023-03-06T02:39:21.804Z,109.67
2023-03-06T02:40:02.960Z,108.33
2023-03-06T02:40:35.449Z,103.00
2023-03-06T02:41:08.635Z,102.33
2023-03-06T02:41:41.007Z,103.33
2023-03-06T02:42:19.594Z,104.00
2023-03-06T02:42:58.143Z,103.33
2023-03-06T02:43:34.915Z,103.00
2023-03-06T02:44:06.661Z,102.33
2023-03-06T02:44:38.652Z,101.67
2023-03-06T02:45:13.478Z,101.00
2023-03-06T02:45:49.304Z,100.33
2023-03-06T02:46:21.134Z,99.00
2023-03-06T02:46:52.899Z,99.00
2023-03-06T02:47:25.550Z,99.00
2023-03-06T02:47:57.306Z,99.00
2023-03-06T02:48:29.146Z,97.67
2023-03-06T02:49:00.924Z,95.67
2023-03-06T02:49:32.703Z,95.00
2023-03-06T02:50:04.710Z,93.67
2023-03-06T02:50:36.511Z,92.33
2023-03-06T02:51:08.347Z,91.00
2023-03-06T02:51:40.080Z,91.00
2023-03-06T02:52:12.029Z,91.00
2023-03-06T02:52:43.796Z,91.00
2023-03-06T02:53:18.373Z,91.00
2023-03-06T02:53:50.388Z,91.00
2023-03-06T02:54:22.394Z,91.00
2023-03-06T02:54:54.188Z,91.00
2023-03-06T02:55:26.015Z,91.00
2023-03-06T02:55:57.904Z,91.33
2023-03-06T02:56:29.720Z,92.00
2023-03-06T02:57:01.460Z,91.33
2023-03-06T02:57:33.265Z,91.00
2023-03-06T02:58:05.590Z,91.00
2023-03-06T02:58:37.473Z,90.00
2023-03-06T02:59:09.235Z,90.00
2023-03-06T02:59:41.068Z,90.00
2023-03-06T03:00:13.264Z,90.00
2023-03-06T03:00:45.110Z,90.00
2023-03-06T03:01:16.876Z,90.00
2023-03-06T03:01:48.770Z,90.00
2023-03-06T03:02:20.665Z,90.00
2023-03-06T03:02:53.128Z,90.00
2023-03-06T03:03:24.844Z,90.00
2023-03-06T03:03:56.595Z,90.00
2023-03-06T03:04:28.394Z,90.00
2023-03-06T03:05:00.193Z,90.00
2023-03-06T03:05:32.504Z,90.00
2023-03-06T03:06:06.031Z,90.67
2023-03-06T03:06:37.844Z,91.00
2023-03-06T03:07:09.627Z,91.00
2023-03-06T03:07:41.438Z,91.67
2023-03-06T03:08:13.492Z,92.00
2023-03-06T03:08:45.233Z,93.00
2023-03-06T03:09:17.154Z,93.67
2023-03-06T03:09:48.927Z,94.67
2023-03-06T03:10:21.020Z,95.67
2023-03-06T03:10:52.834Z,96.33
2023-03-06T03:11:24.598Z,97.00
2023-03-06T03:11:56.341Z,98.00
2023-03-06T03:12:28.829Z,98.33
2023-03-06T03:13:00.826Z,101.00
2023-03-06T03:13:32.967Z,103.67
2023-03-06T03:14:04.854Z,104.33
2023-03-06T03:14:36.701Z,104.00
2023-03-06T03:15:09.749Z,104.00
2023-03-06T03:15:41.672Z,104.00
2023-03-06T03:16:15.631Z,103.00
2023-03-06T03:16:47.855Z,103.00
2023-03-06T03:17:19.619Z,103.00
2023-03-06T03:17:51.603Z,102.33
2023-03-06T03:18:23.435Z,102.00
2023-03-06T03:18:55.237Z,102.00
2023-03-06T03:19:26.974Z,102.00
2023-03-06T03:19:58.777Z,102.33
2023-03-06T03:20:30.525Z,103.00
2023-03-06T03:21:03.129Z,104.00
2023-03-06T03:21:34.879Z,104.00
2023-03-06T03:22:07.303Z,104.67
2023-03-06T03:22:39.364Z,105.00
2023-03-06T03:23:11.162Z,104.33
2023-03-06T03:23:43.217Z,104.00
2023-03-06T03:24:16.766Z,105.00
2023-03-06T03:24:48.662Z,105.00
2023-03-06T03:25:23.950Z,106.00
2023-03-06T03:25:55.752Z,106.00
2023-03-06T03:26:27.650Z,106.67
2023-03-06T03:26:59.530Z,107.00
2023-03-06T03:27:31.324Z,107.67
2023-03-06T03:28:03.175Z,108.00
2023-03-06T03:28:35.338Z,109.00
2023-03-06T03:29:07.189Z,112.00
2023-03-06T03:29:40.168Z,112.00
2023-03-06T03:30:12.636Z,112.00
2023-03-06T03:30:45.826Z,113.00
2023-03-06T03:31:17.845Z,118.00
2023-03-06T03:31:49.706Z,120.67
2023-03-06T03:32:21.479Z,121.33
2023-03-06T03:32:53.281Z,122.00
2023-03-06T03:33:25.087Z,121.33
2023-03-06T03:33:56.885Z,120.33
2023-03-06T03:34:28.663Z,119.67
2023-03-06T03:35:00.405Z,119.00
2023-03-06T03:35:32.324Z,118.33
2023-03-06T03:36:06.821Z,118.33
2023-03-06T03:36:38.736Z,120.00
2023-03-06T03:37:10.879Z,121.00
2023-03-06T03:37:42.680Z,126.33
2023-03-06T03:38:14.469Z,130.33
2023-03-06T03:38:46.280Z,128.33
2023-03-06T03:39:18.185Z,129.33
2023-03-06T03:39:50.007Z,135.67
2023-03-06T03:40:21.707Z,138.00
2023-03-06T03:40:53.566Z,139.33
2023-03-06T03:41:25.399Z,138.67
2023-03-06T03:41:57.238Z,135.00
2023-03-06T03:42:29.037Z,131.00
2023-03-06T03:43:00.807Z,122.33
2023-03-06T03:43:32.677Z,114.67
2023-03-06T03:44:04.492Z,102.67
2023-03-06T03:44:36.276Z,96.00
2023-03-06T03:45:08.603Z,93.33
2023-03-06T03:45:40.496Z,89.67
2023-03-06T03:46:12.382Z,90.00
2023-03-06T03:46:44.400Z,90.00
2023-03-06T03:47:16.219Z,85.67
2023-03-06T03:47:48.044Z,84.00
2023-03-06T03:48:20.593Z,87.00
2023-03-06T03:48:52.331Z,88.33
2023-03-06T03:49:24.486Z,86.67
2023-03-06T03:49:56.285Z,87.67
2023-03-06T03:50:28.024Z,88.33
2023-03-06T03:51:09.752Z,89.00
2023-03-06T03:51:41.648Z,90.00
2023-03-06T03:52:13.442Z,91.33
2023-03-06T03:52:45.237Z,94.33
2023-03-06T03:53:17.134Z,101.00
2023-03-06T03:53:49.440Z,104.33
2023-03-06T03:54:21.385Z,104.67
2023-03-06T03:54:53.967Z,104.33
2023-03-06T03:55:26.140Z,104.67
2023-03-06T03:55:57.919Z,105.00
2023-03-06T03:56:29.647Z,105.00
2023-03-06T03:57:01.390Z,105.00
2023-03-06T03:57:33.194Z,105.00
2023-03-06T03:58:05.758Z,105.00
2023-03-06T03:58:37.739Z,106.33
2023-03-06T03:59:09.694Z,107.67
2023-03-06T03:59:41.440Z,113.67
2023-03-06T04:00:16.686Z,119.33
2023-03-06T04:00:48.472Z,121.67
2023-03-06T04:01:20.276Z,122.33
2023-03-06T04:01:52.619Z,122.33
2023-03-06T04:02:25.619Z,120.33
2023-03-06T04:02:57.515Z,119.33
2023-03-06T04:03:29.396Z,118.33
2023-03-06T04:04:01.221Z,115.33
2023-03-06T04:04:33.111Z,113.67
2023-03-06T04:05:05.289Z,111.33
2023-03-06T04:05:37.142Z,130.00
2023-03-06T04:06:09.109Z,147.00
2023-03-06T04:06:40.955Z,142.67
2023-03-06T04:07:12.865Z,143.00
2023-03-06T04:07:44.950Z,144.00
2023-03-06T04:08:16.699Z,145.00
2023-03-06T04:08:48.446Z,142.00
2023-03-06T04:09:20.220Z,141.67
2023-03-06T04:09:52.015Z,140.33
2023-03-06T04:10:23.754Z,138.00
2023-03-06T04:10:55.541Z,136.33
2023-03-06T04:11:27.393Z,135.00
2023-03-06T04:11:59.100Z,134.33
2023-03-06T04:12:30.985Z,133.33
2023-03-06T04:13:02.837Z,132.00
2023-03-06T04:13:34.686Z,132.67
2023-03-06T04:14:08.361Z,135.00
2023-03-06T04:14:40.109Z,134.33
2023-03-06T04:15:11.931Z,132.00
2023-03-06T04:15:43.862Z,128.67
2023-03-06T04:16:15.812Z,125.00
2023-03-06T04:16:47.660Z,123.33
2023-03-06T04:17:19.481Z,123.00
2023-03-06T04:17:51.548Z,123.33
2023-03-06T04:18:24.129Z,126.00
2023-03-06T04:18:55.907Z,128.33
2023-03-06T04:19:27.815Z,128.33
2023-03-06T04:20:00.706Z,128.00
2023-03-06T04:20:32.522Z,128.00
2023-03-06T04:21:04.476Z,127.00
2023-03-06T04:21:36.358Z,125.00
2023-03-06T04:22:08.117Z,130.67
2023-03-06T04:22:39.969Z,143.33
2023-03-06T04:23:12.280Z,140.33
2023-03-06T04:23:44.068Z,138.67
2023-03-06T04:24:15.877Z,138.00
2023-03-06T04:24:49.993Z,137.00
2023-03-06T04:25:21.776Z,135.67
2023-03-06T04:25:54.169Z,132.67
2023-03-06T04:26:26.047Z,124.67
2023-03-06T04:26:57.829Z,111.33
2023-03-06T04:27:29.542Z,106.67
2023-03-06T04:28:01.366Z,108.33
2023-03-06T04:28:33.300Z,111.33
2023-03-06T04:29:05.376Z,112.00
2023-03-06T04:29:37.151Z,112.67
2023-03-06T04:30:09.617Z,114.67
2023-03-06T04:30:44.479Z,128.00
2023-03-06T04:31:16.301Z,146.67
2023-03-06T04:31:48.168Z,152.00
2023-03-06T04:32:21.544Z,154.33
2023-03-06T04:32:53.503Z,157.67
2023-03-06T04:33:25.305Z,149.67
2023-03-06T04:33:57.294Z,150.00
2023-03-06T04:34:29.065Z,148.00
2023-03-06T04:35:01.109Z,145.33
2023-03-06T04:35:33.063Z,144.00
2023-03-06T04:36:05.513Z,138.00
2023-03-06T04:36:37.353Z,122.00
2023-03-06T04:37:22.841Z,103.33
2023-03-06T04:37:55.015Z,99.00
2023-03-06T04:38:26.859Z,104.00
2023-03-06T04:38:59.216Z,107.00
2023-03-06T04:39:31.127Z,107.33
2023-03-06T04:40:03.040Z,107.67
2023-03-06T04:40:37.559Z,103.33
2023-03-06T04:41:09.452Z,98.00
2023-03-06T04:41:42.609Z,92.67
2023-03-06T04:42:15.300Z,96.67
2023-03-06T04:42:47.384Z,97.33
2023-03-06T04:43:19.238Z,97.67
2023-03-06T04:43:52.150Z,100.00
2023-03-06T04:44:24.015Z,102.33
2023-03-06T04:44:55.754Z,103.33
2023-03-06T04:45:30.227Z,104.00
2023-03-06T04:46:02.104Z,105.00
2023-03-06T04:46:35.092Z,105.33
2023-03-06T04:47:07.251Z,107.33
2023-03-06T04:47:39.360Z,110.00
2023-03-06T04:48:15.739Z,151.33
2023-03-06T04:48:47.780Z,143.33
2023-03-06T04:49:19.584Z,141.67
2023-03-06T04:49:51.389Z,143.33
2023-03-06T04:50:25.056Z,169.67
2023-03-06T04:50:56.800Z,198.00
2023-03-06T04:51:28.586Z,208.67
2023-03-06T04:52:00.374Z,181.00
2023-03-06T04:52:32.164Z,177.00
2023-03-06T04:53:04.866Z,161.00
2023-03-06T04:53:36.607Z,152.00
2023-03-06T04:54:08.465Z,145.67
2023-03-06T04:54:40.221Z,151.67
2023-03-06T04:55:14.660Z,160.33
2023-03-06T04:55:46.425Z,161.00
2023-03-06T04:56:18.674Z,164.33
2023-03-06T04:56:50.546Z,162.33
2023-03-06T04:57:22.411Z,161.00
2023-03-06T04:57:54.293Z,158.67
2023-03-06T04:58:26.505Z,157.67
2023-03-06T04:58:58.608Z,157.00
2023-03-06T04:59:30.507Z,157.00
2023-03-06T05:00:08.581Z,157.00
2023-03-06T05:00:40.530Z,159.67
2023-03-06T05:01:12.796Z,160.67
2023-03-06T05:01:44.647Z,159.00
2023-03-06T05:02:17.855Z,166.00
2023-03-06T05:02:50.781Z,180.33
2023-03-06T05:03:22.698Z,190.33
2023-03-06T05:03:54.532Z,202.67
2023-03-06T05:04:26.310Z,206.67
2023-03-06T05:04:58.081Z,186.00
2023-03-06T05:05:30.605Z,178.00
2023-03-06T05:06:02.669Z,176.33
2023-03-06T05:06:34.550Z,166.33
2023-03-06T05:07:06.410Z,139.00
2023-03-06T05:07:39.098Z,128.00
2023-03-06T05:08:16.082Z,137.00
2023-03-06T05:08:47.875Z,134.33
2023-03-06T05:09:19.614Z,128.67
2023-03-06T05:09:51.466Z,118.67
2023-03-06T05:10:23.442Z,109.33
2023-03-06T05:11:01.703Z,107.67
2023-03-06T05:11:33.492Z,104.00
2023-03-06T05:12:05.421Z,101.33
2023-03-06T05:12:37.906Z,98.33
2023-03-06T05:13:10.380Z,97.00
2023-03-06T05:13:42.953Z,95.33
2023-03-06T05:14:14.830Z,90.67
2023-03-06T05:14:48.020Z,84.00
2023-03-06T05:15:19.996Z,79.67
2023-03-06T05:15:51.860Z,79.33
2023-03-06T05:16:26.112Z,82.33
2023-03-06T05:16:58.177Z,89.00
2023-03-06T05:17:30.048Z,93.00
2023-03-06T05:18:01.797Z,88.67
2023-03-06T05:18:34.485Z,89.67
2023-03-06T05:19:06.264Z,88.67
2023-03-06T05:19:38.076Z,83.67
2023-03-06T05:20:12.051Z,85.00
2023-03-06T05:20:43.877Z,91.00
2023-03-06T05:21:15.653Z,96.00
2023-03-06T05:21:47.412Z,112.67
2023-03-06T05:22:19.264Z,134.67
2023-03-06T05:22:51.518Z,148.33
2023-03-06T05:23:23.352Z,147.33
2023-03-06T05:23:55.180Z,143.67
2023-03-06T05:24:26.991Z,156.00
2023-03-06T05:24:58.882Z,175.00
2023-03-06T05:25:30.728Z,160.67
2023-03-06T05:26:08.285Z,152.33
2023-03-06T05:26:40.045Z,150.67
2023-03-06T05:27:11.902Z,143.00
2023-03-06T05:27:43.869Z,141.67
2023-03-06T05:28:15.603Z,142.33
2023-03-06T05:28:47.342Z,145.00
2023-03-06T05:29:19.213Z,152.33
2023-03-06T05:29:50.998Z,164.67
2023-03-06T05:30:23.401Z,169.00
2023-03-06T05:30:55.100Z,164.33
2023-03-06T05:31:26.864Z,154.33
2023-03-06T05:31:59.028Z,150.67
2023-03-06T05:32:31.784Z,144.00
2023-03-06T05:33:04.276Z,129.67
2023-03-06T05:33:36.851Z,103.33
2023-03-06T05:34:15.489Z,96.00
2023-03-06T05:34:48.081Z,115.00
2023-03-06T05:35:23.001Z,118.33
2023-03-06T05:35:54.800Z,128.33
2023-03-06T05:36:26.678Z,158.33
2023-03-06T05:36:59.205Z,167.67
2023-03-06T05:37:31.223Z,165.00
2023-03-06T05:38:03.345Z,159.33
2023-03-06T05:38:35.071Z,156.33
2023-03-06T05:39:07.041Z,154.67
2023-03-06T05:39:38.822Z,157.00
2023-03-06T05:40:11.694Z,163.00
2023-03-06T05:40:44.871Z,166.67
2023-03-06T05:41:17.189Z,159.33
2023-03-06T05:41:48.971Z,158.00
2023-03-06T05:42:21.073Z,157.33
2023-03-06T05:42:52.878Z,156.33
2023-03-06T05:43:24.626Z,158.00
2023-03-06T05:43:57.024Z,165.67
2023-03-06T05:44:33.305Z,165.00
2023-03-06T05:45:05.742Z,161.00
2023-03-06T05:45:38.762Z,161.67
2023-03-06T05:46:11.333Z,166.00
2023-03-06T05:46:43.170Z,169.00
2023-03-06T05:47:15.172Z,171.33
2023-03-06T05:47:47.250Z,185.00
2023-03-06T05:48:19.089Z,192.67
2023-03-06T05:48:53.229Z,174.67
2023-03-06T05:49:25.370Z,201.67
2023-03-06T05:49:57.106Z,220.67
2023-03-06T05:50:28.892Z,192.67
2023-03-06T05:51:02.483Z,181.33
2023-03-06T05:51:34.242Z,177.67
2023-03-06T05:52:07.506Z,144.00
2023-03-06T05:52:40.238Z,126.00
2023-03-06T05:53:12.023Z,133.67
2023-03-06T05:53:43.874Z,142.33
2023-03-06T05:54:15.699Z,146.67
2023-03-06T05:54:51.114Z,162.00
2023-03-06T05:55:24.493Z,176.67
2023-03-06T05:56:02.305Z,172.67
2023-03-06T05:56:34.044Z,170.00
2023-03-06T05:57:06.047Z,170.00
2023-03-06T05:57:37.811Z,167.33
2023-03-06T05:58:09.553Z,157.00
2023-03-06T05:58:41.364Z,152.00
2023-03-06T05:59:13.513Z,151.33
2023-03-06T05:59:46.387Z,149.67
2023-03-06T06:00:19.887Z,134.00
2023-03-06T06:00:52.296Z,115.33
2023-03-06T06:01:25.507Z,111.33
2023-03-06T06:01:57.978Z,105.67
2023-03-06T06:02:29.975Z,99.67
2023-03-06T06:03:02.419Z,106.33
2023-03-06T06:03:34.296Z,128.67
2023-03-06T06:04:06.144Z,151.67
2023-03-06T06:04:38.057Z,155.33
2023-03-06T06:05:12.899Z,152.67
2023-03-06T06:05:45.034Z,141.67
2023-03-06T06:06:16.903Z,125.33
2023-03-06T06:06:54.282Z,129.67
2023-03-06T06:07:26.062Z,132.00
2023-03-06T06:07:57.870Z,132.00
2023-03-06T06:08:29.646Z,134.33
2023-03-06T06:09:01.431Z,157.67
2023-03-06T06:09:33.174Z,173.33
2023-03-06T06:10:07.051Z,168.00
2023-03-06T06:10:39.907Z,165.67
2023-03-06T06:11:12.954Z,170.67
2023-03-06T06:11:44.902Z,176.00
2023-03-06T06:12:16.690Z,173.33
2023-03-06T06:12:48.490Z,169.00
2023-03-06T06:13:20.263Z,166.33
2023-03-06T06:13:52.025Z,166.33
2023-03-06T06:14:24.646Z,157.67
2023-03-06T06:14:56.535Z,115.00
2023-03-06T06:15:29.028Z,87.33
2023-03-06T06:16:06.027Z,79.67
2023-03-06T06:16:37.841Z,86.67
2023-03-06T06:17:09.649Z,90.00
2023-03-06T06:17:41.630Z,90.00
2023-03-06T06:18:13.392Z,87.00
2023-03-06T06:18:46.709Z,86.00
2023-03-06T06:19:21.333Z,87.33
2023-03-06T06:19:53.986Z,95.33
2023-03-06T06:20:26.135Z,100.67
2023-03-06T06:20:57.876Z,101.00
2023-03-06T06:21:29.594Z,102.00
2023-03-06T06:22:04.101Z,103.00
2023-03-06T06:22:38.025Z,100.33
2023-03-06T06:23:12.723Z,99.67
2023-03-06T06:23:44.596Z,101.00
2023-03-06T06:24:19.334Z,103.00
2023-03-06T06:24:51.212Z,99.67
2023-03-06T06:25:22.957Z,98.33
2023-03-06T06:25:54.761Z,100.33
2023-03-06T06:26:26.542Z,109.67
2023-03-06T06:27:01.930Z,135.00
2023-03-06T06:27:35.171Z,141.00
2023-03-06T06:28:06.955Z,130.00
2023-03-06T06:28:38.757Z,126.33
2023-03-06T06:29:11.824Z,126.00
2023-03-06T06:29:43.544Z,126.00
2023-03-06T06:30:15.397Z,126.00
2023-03-06T06:30:47.188Z,126.33
2023-03-06T06:31:19.027Z,128.33
2023-03-06T06:31:51.554Z,138.33
2023-03-06T06:32:23.387Z,153.67
2023-03-06T06:32:55.591Z,171.00
2023-03-06T06:33:27.520Z,173.67
2023-03-06T06:33:59.416Z,163.67
2023-03-06T06:34:31.988Z,161.33
2023-03-06T06:35:04.402Z,167.33
2023-03-06T06:35:37.416Z,151.00
2023-03-06T06:36:17.103Z,140.67
2023-03-06T06:36:52.210Z,126.67
2023-03-06T06:37:26.068Z,117.00
2023-03-06T06:37:57.851Z,103.33
2023-03-06T06:38:29.937Z,96.67
2023-03-06T06:39:02.037Z,100.67
2023-03-06T06:39:33.940Z,99.67
2023-03-06T06:40:06.323Z,104.33
2023-03-06T06:40:38.058Z,105.00
2023-03-06T06:42:20.155Z,100.67
2023-03-06T06:42:52.588Z,104.67
2023-03-06T06:43:24.344Z,106.00
2023-03-06T06:43:58.680Z,102.33
2023-03-06T06:44:30.703Z,98.33
2023-03-06T06:45:05.283Z,100.00
2023-03-06T06:45:37.189Z,102.67
2023-03-06T06:46:38.873Z,105.00
2023-03-06T06:47:23.471Z,112.00
2023-03-06T06:47:52.605Z,113.00
2023-03-06T06:48:25.016Z,113.00
2023-03-06T06:48:56.832Z,112.33
2023-03-06T06:49:28.586Z,112.33
2023-03-06T06:50:00.325Z,113.00
2023-03-06T06:50:32.141Z,113.00
2023-03-06T06:51:04.604Z,113.00
2023-03-06T06:51:37.508Z,112.33
2023-03-06T06:52:10.579Z,113.00
2023-03-06T06:52:42.364Z,113.67
2023-03-06T06:53:14.091Z,116.67
2023-03-06T06:53:45.938Z,124.67
2023-03-06T06:54:18.864Z,151.33
2023-03-06T06:54:51.106Z,205.67
2023-03-06T06:55:22.867Z,217.33